createdAt,value
2016-04-22T00:00:49.975Z,1022.49
2016-04-22T00:01:49.978Z,1022.49
2016-04-22T00:02:49.997Z,1022.45
2016-04-22T00:03:50.004Z,1022.47
2016-04-22T00:04:50.027Z,1022.46
2016-04-22T00:06:02.780Z,1022.46
2016-04-22T00:06:50.064Z,1022.47
2016-04-22T00:07:50.051Z,1022.48
2016-04-22T00:08:50.084Z,1022.49
2016-04-22T00:09:50.087Z,1022.48
2016-04-22T00:10:50.106Z,1022.44
2016-04-22T00:11:50.124Z,1022.49
2016-04-22T00:13:02.861Z,1022.48
2016-04-22T00:13:50.145Z,1022.48
2016-04-22T00:15:09.367Z,1022.47
2016-04-22T00:15:50.369Z,1022.43
2016-04-22T00:16:50.200Z,1022.44
2016-04-22T00:17:50.187Z,1022.4
2016-04-22T00:18:50.206Z,1022.44
2016-04-22T00:19:50.224Z,1022.44
2016-04-22T00:20:56.492Z,1022.46
2016-04-22T00:21:50.244Z,1022.46
2016-04-22T00:22:50.263Z,1022.48
2016-04-22T00:23:50.282Z,1022.49
2016-04-22T00:24:50.300Z,1022.51
2016-04-22T00:25:50.302Z,1022.5
2016-04-22T00:26:50.321Z,1022.52
2016-04-22T00:27:50.324Z,1022.5
2016-04-22T00:28:50.342Z,1022.52
2016-04-22T00:30:03.095Z,1022.46
2016-04-22T00:31:03.098Z,1022.51
2016-04-22T00:31:50.382Z,1022.48
2016-04-22T00:32:50.384Z,1022.47
2016-04-22T00:33:50.402Z,1022.47
2016-04-22T00:34:50.420Z,1022.46
2016-04-22T00:35:50.440Z,1022.48
2016-04-22T00:36:50.443Z,1022.46
2016-04-22T00:37:50.461Z,1022.43
2016-04-22T00:38:50.480Z,1022.41
2016-04-22T00:39:50.482Z,1022.43
2016-04-22T00:40:50.500Z,1022.38
2016-04-22T00:41:50.503Z,1022.42
2016-04-22T00:42:50.521Z,1022.39
2016-04-22T00:43:50.554Z,1022.37
2016-04-22T00:44:50.558Z,1022.4
2016-04-22T00:45:51.982Z,1022.34
2016-04-22T00:46:50.579Z,1022.37
2016-04-22T00:47:50.597Z,1022.35
2016-04-22T00:48:50.615Z,1022.33
2016-04-22T00:49:50.617Z,1022.29
2016-04-22T00:50:50.621Z,1022.29
2016-04-22T00:51:50.639Z,1022.26
2016-04-22T00:52:50.657Z,1022.28
2016-04-22T00:53:50.676Z,1022.25
2016-04-22T00:54:50.679Z,1022.24
2016-04-22T00:56:03.431Z,1022.24
2016-04-22T00:56:50.714Z,1022.2
2016-04-22T00:57:50.717Z,1022.17
2016-04-22T00:58:50.736Z,1022.19
2016-04-22T00:59:50.739Z,1022.17
2016-04-22T01:00:50.757Z,1022.15
2016-04-22T01:01:50.775Z,1022.16
2016-04-22T01:02:50.793Z,1022.17
2016-04-22T01:03:50.796Z,1022.21
2016-04-22T01:04:50.814Z,1022.17
2016-04-22T01:05:50.833Z,1022.18
2016-04-22T01:06:50.835Z,1022.15
2016-04-22T01:07:50.854Z,1022.14
2016-04-22T01:08:50.872Z,1022.16
2016-04-22T01:09:50.890Z,1022.16
2016-04-22T01:10:50.893Z,1022.16
2016-04-22T01:11:50.912Z,1022.15
2016-04-22T01:12:50.930Z,1022.14
2016-04-22T01:13:50.932Z,1022.15
2016-04-22T01:14:51.560Z,1022.14
2016-04-22T01:15:50.969Z,1022.14
2016-04-22T01:17:03.706Z,1022.14
2016-04-22T01:17:50.974Z,1022.11
2016-04-22T01:18:50.993Z,1022.11
2016-04-22T01:19:51.011Z,1022.12
2016-04-22T01:20:51.029Z,1022.16
2016-04-22T01:21:51.048Z,1022.14
2016-04-22T01:22:51.067Z,1022.14
2016-04-22T01:23:51.053Z,1022.11
2016-04-22T01:24:51.072Z,1022.11
2016-04-22T01:26:03.840Z,1022.13
2016-04-22T01:26:51.108Z,1022.08
2016-04-22T01:27:51.126Z,1022.07
2016-04-22T01:28:51.129Z,1022.05
2016-04-22T01:29:51.147Z,1022.05
2016-04-22T01:30:51.166Z,1022
2016-04-22T01:31:51.169Z,1021.96
2016-04-22T01:32:51.186Z,1021.96
2016-04-22T01:34:03.924Z,1021.96
2016-04-22T01:34:51.208Z,1021.98
2016-04-22T01:35:51.211Z,1021.99
2016-04-22T01:36:51.244Z,1021.96
2016-04-22T01:37:51.247Z,1021.98
2016-04-22T01:38:51.344Z,1021.94
2016-04-22T01:39:51.268Z,1021.95
2016-04-22T01:41:04.068Z,1021.94
2016-04-22T01:41:51.305Z,1021.96
2016-04-22T01:43:16.980Z,1021.94
2016-04-22T01:43:51.326Z,1021.91
2016-04-22T01:44:51.344Z,1021.91
2016-04-22T01:45:51.346Z,1021.9
2016-04-22T01:47:04.115Z,1021.87
2016-04-22T01:47:51.587Z,1021.86
2016-04-22T01:48:51.387Z,1021.81
2016-04-22T01:50:10.607Z,1021.85
2016-04-22T01:50:51.423Z,1021.87
2016-04-22T01:51:51.426Z,1021.81
2016-04-22T01:52:57.709Z,1021.8
2016-04-22T01:53:51.462Z,1021.8
2016-04-22T01:54:51.481Z,1021.85
2016-04-22T01:55:51.484Z,1021.84
2016-04-22T01:56:51.501Z,1021.85
2016-04-22T01:57:51.520Z,1021.83
2016-04-22T01:58:51.522Z,1021.81
2016-04-22T01:59:51.541Z,1021.79
2016-04-22T02:00:51.559Z,1021.79
2016-04-22T02:01:51.562Z,1021.78
2016-04-22T02:02:51.580Z,1021.74
2016-04-22T02:03:51.583Z,1021.77
2016-04-22T02:04:51.601Z,1021.77
2016-04-22T02:05:51.619Z,1021.74
2016-04-22T02:06:51.622Z,1021.72
2016-04-22T02:07:51.656Z,1021.75
2016-04-22T02:08:51.675Z,1021.76
2016-04-22T02:09:51.677Z,1021.76
2016-04-22T02:10:51.742Z,1021.77
2016-04-22T02:11:51.699Z,1021.72
2016-04-22T02:12:51.763Z,1021.77
2016-04-22T02:13:51.719Z,1021.77
2016-04-22T02:14:51.738Z,1021.74
2016-04-22T02:15:51.740Z,1021.76
2016-04-22T02:16:51.758Z,1021.77
2016-04-22T02:17:51.777Z,1021.71
2016-04-22T02:18:51.795Z,1021.74
2016-04-22T02:19:51.798Z,1021.76
2016-04-22T02:20:51.816Z,1021.75
2016-04-22T02:21:51.819Z,1021.73
2016-04-22T02:22:51.837Z,1021.76
2016-04-22T02:23:51.856Z,1021.78
2016-04-22T02:24:51.873Z,1021.78
2016-04-22T02:25:51.907Z,1021.74
2016-04-22T02:26:51.895Z,1021.75
2016-04-22T02:27:51.913Z,1021.75
2016-04-22T02:28:51.915Z,1021.77
2016-04-22T02:29:51.934Z,1021.8
2016-04-22T02:31:04.687Z,1021.76
2016-04-22T02:31:51.970Z,1021.82
2016-04-22T02:32:51.973Z,1021.8
2016-04-22T02:33:52.007Z,1021.82
2016-04-22T02:34:52.010Z,1021.82
2016-04-22T02:35:52.028Z,1021.83
2016-04-22T02:36:52.031Z,1021.85
2016-04-22T02:37:52.049Z,1021.87
2016-04-22T02:38:52.067Z,1021.87
2016-04-22T02:39:52.070Z,1021.86
2016-04-22T02:40:52.088Z,1021.88
2016-04-22T02:41:52.091Z,1021.83
2016-04-22T02:42:52.125Z,1021.85
2016-04-22T02:43:52.128Z,1021.84
2016-04-22T02:45:04.880Z,1021.81
2016-04-22T02:45:52.149Z,1021.83
2016-04-22T02:47:04.901Z,1021.82
2016-04-22T02:47:52.185Z,1021.85
2016-04-22T02:48:52.188Z,1021.84
2016-04-22T02:49:52.221Z,1021.83
2016-04-22T02:50:52.224Z,1021.83
2016-04-22T02:51:52.243Z,1021.86
2016-04-22T02:52:52.246Z,1021.82
2016-04-22T02:53:52.264Z,1021.84
2016-04-22T02:54:52.282Z,1021.81
2016-04-22T02:55:52.284Z,1021.81
2016-04-22T02:56:52.320Z,1021.82
2016-04-22T02:57:52.916Z,1021.87
2016-04-22T02:58:52.339Z,1021.86
2016-04-22T02:59:52.343Z,1021.87
2016-04-22T03:00:52.361Z,1021.83
2016-04-22T03:01:52.379Z,1021.89
2016-04-22T03:02:52.382Z,1021.85
2016-04-22T03:03:52.400Z,1021.85
2016-04-22T03:04:52.419Z,1021.87
2016-04-22T03:05:52.436Z,1021.86
2016-04-22T03:06:52.439Z,1021.91
2016-04-22T03:07:52.474Z,1021.91
2016-04-22T03:09:05.210Z,1021.93
2016-04-22T03:10:05.229Z,1021.93
2016-04-22T03:11:18.169Z,1021.9
2016-04-22T03:11:52.516Z,1021.94
2016-04-22T03:14:02.083Z,1021.91
2016-04-22T03:15:02.086Z,1021.94
2016-04-22T03:16:02.089Z,1021.94
2016-04-22T03:17:14.857Z,1021.93
2016-04-22T03:18:02.126Z,1021.94
2016-04-22T03:19:27.834Z,1021.96
2016-04-22T03:20:02.162Z,1021.96
2016-04-22T03:22:17.371Z,1021.89
2016-04-22T03:23:17.389Z,1021.93
2016-04-22T03:24:17.392Z,1021.96
2016-04-22T03:25:30.148Z,1021.94
2016-04-22T03:26:17.429Z,1021.94
2016-04-22T03:27:43.121Z,1021.92
2016-04-22T03:28:18.059Z,1021.88
2016-04-22T03:29:52.439Z,1021.89
2016-04-22T03:30:52.457Z,1021.88
2016-04-22T03:31:52.460Z,1021.89
2016-04-22T03:32:52.478Z,1021.9
2016-04-22T03:33:52.497Z,1021.92
2016-04-22T03:34:53.108Z,1021.95
2016-04-22T03:36:05.252Z,1021.95
2016-04-22T03:36:52.536Z,1021.91
2016-04-22T03:37:52.554Z,1021.92
2016-04-22T03:38:52.558Z,1021.96
2016-04-22T03:39:52.575Z,1021.91
2016-04-22T03:40:52.578Z,1021.86
2016-04-22T03:41:52.597Z,1021.81
2016-04-22T03:42:52.599Z,1021.83
2016-04-22T03:43:52.617Z,1021.84
2016-04-22T03:44:52.636Z,1021.83
2016-04-22T03:46:18.326Z,1021.86
2016-04-22T03:47:02.204Z,1021.87
2016-04-22T03:48:21.425Z,1021.79
2016-04-22T03:49:02.240Z,1021.79
2016-04-22T03:50:02.243Z,1021.8
2016-04-22T03:51:02.260Z,1021.87
2016-04-22T03:52:02.873Z,1021.85
2016-04-22T03:53:02.891Z,1021.82
2016-04-22T03:54:02.301Z,1021.85
2016-04-22T03:55:21.507Z,1021.84
2016-04-22T03:56:15.057Z,1021.88
2016-04-22T03:57:27.999Z,1021.86
2016-04-22T03:58:30.939Z,1021.85
2016-04-22T03:59:14.829Z,1021.82
2016-04-22T04:00:34.054Z,1021.83
2016-04-22T04:01:15.054Z,1021.85
2016-04-22T04:03:30.061Z,1021.84
2016-04-22T04:04:30.064Z,1021.83
2016-04-22T04:05:30.083Z,1021.91
2016-04-22T04:06:30.100Z,1021.86
2016-04-22T04:07:30.104Z,1021.89
2016-04-22T04:08:30.122Z,1021.91
2016-04-22T04:09:30.141Z,1021.9
2016-04-22T04:10:49.362Z,1021.88
2016-04-22T04:12:05.208Z,1021.87
2016-04-22T04:12:46.008Z,1021.88
2016-04-22T04:13:46.026Z,1021.88
2016-04-22T04:14:46.029Z,1021.89
2016-04-22T04:16:46.065Z,1021.9
2016-04-22T04:17:46.083Z,1021.92
2016-04-22T04:18:58.836Z,1021.95
2016-04-22T04:19:46.104Z,1021.92
2016-04-22T04:21:11.795Z,1021.9
2016-04-22T04:21:55.704Z,1021.9
2016-04-22T04:22:55.736Z,1021.9
2016-04-22T04:23:55.777Z,1021.92
2016-04-22T04:24:55.836Z,1021.92
2016-04-22T04:25:55.893Z,1021.91
2016-04-22T04:27:08.669Z,1021.87
2016-04-22T04:27:55.981Z,1021.86
2016-04-22T04:29:15.217Z,1021.83
2016-04-22T04:29:56.032Z,1021.83
2016-04-22T04:32:12.737Z,1021.88
2016-04-22T04:33:12.750Z,1021.83
2016-04-22T04:34:13.383Z,1021.9
2016-04-22T04:35:25.531Z,1021.87
2016-04-22T04:36:12.820Z,1021.88
2016-04-22T04:37:12.829Z,1021.87
2016-04-22T04:38:15.959Z,1021.87
2016-04-22T04:39:25.557Z,1021.91
2016-04-22T04:40:51.254Z,1021.92
2016-04-22T04:42:57.029Z,1021.95
2016-04-22T04:43:37.828Z,1021.95
2016-04-22T04:45:03.519Z,1021.88
2016-04-22T04:45:47.444Z,1021.85
2016-04-22T04:46:47.447Z,1021.86
2016-04-22T04:47:47.465Z,1021.84
2016-04-22T04:48:47.469Z,1021.84
2016-04-22T04:49:47.504Z,1021.87
2016-04-22T04:51:00.257Z,1021.9
2016-04-22T04:52:00.260Z,1021.95
2016-04-22T04:53:13.216Z,1021.93
2016-04-22T04:54:06.750Z,1021.99
2016-04-22T04:55:21.955Z,1022.02
2016-04-22T04:56:21.974Z,1021.99
2016-04-22T04:57:21.991Z,1022
2016-04-22T04:58:37.201Z,1021.97
2016-04-22T04:59:37.203Z,1022.01
2016-04-22T05:00:37.221Z,1021.97
2016-04-22T05:01:46.802Z,1021.99
2016-04-22T05:04:02.417Z,1021.92
2016-04-22T05:05:02.435Z,1021.97
2016-04-22T05:06:08.563Z,1021.95
2016-04-22T05:07:05.551Z,1021.98
2016-04-22T05:08:15.225Z,1022.01
2016-04-22T05:09:15.181Z,1022.05
2016-04-22T05:10:24.746Z,1022.04
2016-04-22T05:11:24.780Z,1022.01
2016-04-22T05:12:26.205Z,1022.02
2016-04-22T05:13:24.801Z,1022.08
2016-04-22T05:14:44.026Z,1022.09
2016-04-22T05:15:25.432Z,1022.09
2016-04-22T05:16:24.841Z,1022.08
2016-04-22T05:17:34.628Z,1022.07
2016-04-22T05:18:34.631Z,1022.05
2016-04-22T05:19:34.665Z,1022.08
2016-04-22T05:20:40.948Z,1022.06
2016-04-22T05:21:34.685Z,1022.05
2016-04-22T05:22:34.704Z,1022.08
2016-04-22T05:23:36.128Z,1022.08
2016-04-22T05:25:00.412Z,1022.08
2016-04-22T05:25:53.961Z,1022.06
2016-04-22T05:28:15.655Z,1022.12
2016-04-22T05:29:15.658Z,1022.19
2016-04-22T05:30:15.691Z,1022.17
2016-04-22T05:31:28.431Z,1022.22
2016-04-22T05:32:15.712Z,1022.23
2016-04-22T05:33:41.389Z,1022.26
2016-04-22T05:34:50.299Z,1022.22
2016-04-22T05:35:50.301Z,1022.21
2016-04-22T05:36:56.600Z,1022.26
2016-04-22T05:38:03.072Z,1022.27
2016-04-22T05:39:03.106Z,1022.29
2016-04-22T05:40:16.047Z,1022.24
2016-04-22T05:41:16.064Z,1022.26
2016-04-22T05:41:59.989Z,1022.3
2016-04-22T05:43:25.663Z,1022.25
2016-04-22T05:44:00.010Z,1022.3
2016-04-22T05:46:09.578Z,1022.26
2016-04-22T05:47:09.596Z,1022.22
2016-04-22T05:48:09.630Z,1022.23
2016-04-22T05:49:09.648Z,1022.29
2016-04-22T05:50:09.651Z,1022.23
2016-04-22T05:51:22.419Z,1022.23
2016-04-22T05:52:15.969Z,1022.22
2016-04-22T05:53:09.722Z,1022.18
2016-04-22T05:54:22.474Z,1022.19
2016-04-22T05:56:09.776Z,1022.12
2016-04-22T05:57:09.811Z,1022.11
2016-04-22T05:58:25.000Z,1022.13
2016-04-22T05:59:25.020Z,1022.18
2016-04-22T06:00:25.053Z,1022.21
2016-04-22T06:01:25.072Z,1022.33
2016-04-22T06:02:25.074Z,1022.32
2016-04-22T06:03:31.377Z,1022.34
2016-04-22T06:04:25.127Z,1022.33
2016-04-22T06:05:37.897Z,1022.31
2016-04-22T06:07:25.197Z,1022.33
2016-04-22T06:08:25.216Z,1022.32
2016-04-22T06:09:40.423Z,1022.42
2016-04-22T06:10:40.441Z,1022.42
2016-04-22T06:13:05.979Z,1022.45
2016-04-22T06:15:22.063Z,1022.41
2016-04-22T06:16:22.095Z,1022.4
2016-04-22T06:17:37.289Z,1022.38
2016-04-22T06:18:37.323Z,1022.37
2016-04-22T06:19:37.356Z,1022.28
2016-04-22T06:20:50.109Z,1022.27
2016-04-22T06:21:37.612Z,1022.31
2016-04-22T06:22:56.630Z,1022.31
2016-04-22T06:23:37.445Z,1022.37
2016-04-22T06:25:47.139Z,1022.4
2016-04-22T06:27:47.191Z,1022.32
2016-04-22T06:28:47.225Z,1022.29
2016-04-22T06:29:47.242Z,1022.2
2016-04-22T06:30:47.278Z,1022.2
2016-04-22T06:31:47.295Z,1022.3
2016-04-22T06:32:47.330Z,1022.37
2016-04-22T06:33:47.348Z,1022.3
2016-04-22T06:34:47.381Z,1022.42
2016-04-22T06:35:48.009Z,1022.35
2016-04-22T06:36:47.434Z,1022.34
2016-04-22T06:38:06.655Z,1022.45
2016-04-22T06:38:50.580Z,1022.42
2016-04-22T06:39:50.598Z,1022.45
2016-04-22T06:41:13.757Z,1022.36
2016-04-22T06:41:57.650Z,1022.3
2016-04-22T06:43:16.856Z,1022.26
2016-04-22T06:44:00.921Z,1022.31
2016-04-22T06:45:00.940Z,1022.27
2016-04-22T06:46:00.974Z,1022.24
2016-04-22T06:47:00.992Z,1022.33
2016-04-22T06:48:01.010Z,1022.43
2016-04-22T06:49:01.044Z,1022.35
2016-04-22T06:50:01.672Z,1022.37
2016-04-22T06:51:13.831Z,1022.31
2016-04-22T06:52:01.724Z,1022.32
2016-04-22T06:53:26.820Z,1022.26
2016-04-22T06:54:01.183Z,1022.35
2016-04-22T06:55:01.184Z,1022.22
2016-04-22T06:56:01.219Z,1022.26
2016-04-22T06:57:01.237Z,1022.26
2016-04-22T06:58:01.881Z,1022.28
2016-04-22T06:59:01.900Z,1022.34
2016-04-22T07:00:01.324Z,1022.39
2016-04-22T07:01:01.342Z,1022.36
2016-04-22T07:02:01.360Z,1022.4
2016-04-22T07:03:01.394Z,1022.42
2016-04-22T07:04:01.428Z,1022.38
2016-04-22T07:05:01.447Z,1022.36
2016-04-22T07:06:01.464Z,1022.33
2016-04-22T07:07:01.499Z,1022.34
2016-04-22T07:08:01.533Z,1022.46
2016-04-22T07:09:01.551Z,1022.44
2016-04-22T07:10:01.569Z,1022.4
2016-04-22T07:11:14.338Z,1022.43
2016-04-22T07:12:01.622Z,1022.41
2016-04-22T07:13:01.641Z,1022.42
2016-04-22T07:14:01.893Z,1022.43
2016-04-22T07:15:01.693Z,1022.43
2016-04-22T07:16:14.460Z,1022.5
2016-04-22T07:17:01.760Z,1022.5
2016-04-22T07:18:01.794Z,1022.59
2016-04-22T07:19:01.859Z,1022.56
2016-04-22T07:20:01.831Z,1022.57
2016-04-22T07:21:01.865Z,1022.53
2016-04-22T07:22:01.882Z,1022.54
2016-04-22T07:23:01.917Z,1022.56
2016-04-22T07:24:01.951Z,1022.56
2016-04-22T07:25:01.969Z,1022.61
2016-04-22T07:26:02.159Z,1022.36
2016-04-22T07:27:02.021Z,1022.61
2016-04-22T07:28:14.789Z,1022.63
2016-04-22T07:29:02.089Z,1022.68
2016-04-22T07:30:02.123Z,1022.58
2016-04-22T07:31:17.329Z,1022.49
2016-04-22T07:32:17.348Z,1022.29
2016-04-22T07:33:30.116Z,1022.26
2016-04-22T07:34:17.414Z,1022.5
2016-04-22T07:35:17.434Z,1022.39
2016-04-22T07:36:18.077Z,1022.43
2016-04-22T07:37:17.486Z,1022.35
2016-04-22T07:38:17.536Z,1022.31
2016-04-22T07:39:17.569Z,1022.43
2016-04-22T07:40:17.588Z,1022.41
2016-04-22T07:41:17.606Z,1022.36
2016-04-22T07:42:17.640Z,1022.32
2016-04-22T07:43:17.674Z,1022.3
2016-04-22T07:44:17.692Z,1022.39
2016-04-22T07:45:17.726Z,1022.44
2016-04-22T07:46:27.416Z,1022.26
2016-04-22T07:47:27.435Z,1022.35
2016-04-22T07:48:27.468Z,1022.25
2016-04-22T07:49:27.487Z,1022.35
2016-04-22T07:50:27.521Z,1022.28
2016-04-22T07:51:46.760Z,1022.25
2016-04-22T07:52:27.588Z,1022.22
2016-04-22T07:53:27.607Z,1022.2
2016-04-22T07:54:38.581Z,1022.28
2016-04-22T07:55:38.599Z,1022.22
2016-04-22T07:56:38.634Z,1022.17
2016-04-22T07:57:44.918Z,1022.19
2016-04-22T07:58:38.890Z,1022.19
2016-04-22T07:59:57.907Z,1022.19
2016-04-22T08:00:38.738Z,1022.23
2016-04-22T08:01:38.756Z,1022.27
2016-04-22T08:02:43.008Z,1022.23
2016-04-22T08:03:43.043Z,1022.2
2016-04-22T08:04:43.062Z,1022.14
2016-04-22T08:05:49.360Z,1022.08
2016-04-22T08:06:43.114Z,1022.07
2016-04-22T08:07:43.147Z,1022.05
2016-04-22T08:08:43.166Z,1022
2016-04-22T08:09:43.184Z,1022.01
2016-04-22T08:10:43.218Z,1022.09
2016-04-22T08:11:43.236Z,1022.1
2016-04-22T08:12:44.677Z,1022.12
2016-04-22T08:14:02.476Z,1022.11
2016-04-22T08:15:02.510Z,1022.06
2016-04-22T08:15:43.325Z,1022.14
2016-04-22T08:17:43.377Z,1022.07
2016-04-22T08:18:43.396Z,1022.21
2016-04-22T08:19:43.414Z,1022.14
2016-04-22T08:20:43.448Z,1022.13
2016-04-22T08:21:43.466Z,1022.16
2016-04-22T08:22:43.485Z,1022.13
2016-04-22T08:23:56.253Z,1022.14
2016-04-22T08:24:43.521Z,1022.1
2016-04-22T08:25:43.555Z,1022.05
2016-04-22T08:26:56.307Z,1022.03
2016-04-22T08:27:43.607Z,1022.11
2016-04-22T08:28:43.626Z,1022.2
2016-04-22T08:29:56.378Z,1022.2
2016-04-22T08:30:43.678Z,1022.19
2016-04-22T08:31:43.681Z,1022.09
2016-04-22T08:32:56.448Z,1022.08
2016-04-22T08:33:50.061Z,1022.08
2016-04-22T08:35:02.954Z,1022.01
2016-04-22T08:35:43.785Z,1021.97
2016-04-22T08:37:03.007Z,1021.96
2016-04-22T08:37:44.009Z,1021.99
2016-04-22T08:38:43.839Z,1022.02
2016-04-22T08:39:43.858Z,1022.03
2016-04-22T08:41:09.564Z,1022.02
2016-04-22T08:41:53.489Z,1021.98
2016-04-22T08:43:19.164Z,1021.97
2016-04-22T08:43:53.525Z,1022.03
2016-04-22T08:44:53.544Z,1022.01
2016-04-22T08:45:53.578Z,1022.03
2016-04-22T08:46:53.596Z,1022.07
2016-04-22T08:47:53.599Z,1022.03
2016-04-22T08:49:06.367Z,1022.03
2016-04-22T08:49:53.651Z,1022.06
2016-04-22T08:50:53.669Z,1022.05
2016-04-22T08:51:53.687Z,1021.99
2016-04-22T08:53:06.457Z,1022.05
2016-04-22T08:53:53.740Z,1022.05
2016-04-22T08:55:15.024Z,1022.06
2016-04-22T08:55:53.777Z,1022.14
2016-04-22T08:56:53.795Z,1022.07
2016-04-22T08:58:00.094Z,1022.08
2016-04-22T08:58:53.847Z,1022
2016-04-22T08:59:53.866Z,1021.98
2016-04-22T09:01:00.149Z,1021.97
2016-04-22T09:01:53.918Z,1021.97
2016-04-22T09:02:54.045Z,1021.94
2016-04-22T09:04:00.220Z,1021.95
2016-04-22T09:05:00.239Z,1021.95
2016-04-22T09:05:53.991Z,1021.96
2016-04-22T09:06:54.025Z,1021.95
2016-04-22T09:07:54.043Z,1022.01
2016-04-22T09:08:54.062Z,1022.04
2016-04-22T09:09:54.080Z,1022.02
2016-04-22T09:10:54.098Z,1021.97
2016-04-22T09:11:54.132Z,1021.98
2016-04-22T09:12:54.166Z,1022
2016-04-22T09:13:54.168Z,1022.04
2016-04-22T09:14:54.202Z,1021.99
2016-04-22T09:15:54.269Z,1022.05
2016-04-22T09:16:54.239Z,1022.04
2016-04-22T09:18:06.992Z,1021.99
2016-04-22T09:18:54.291Z,1021.99
2016-04-22T09:19:54.310Z,1022.04
2016-04-22T09:20:54.328Z,1021.95
2016-04-22T09:21:54.346Z,1022
2016-04-22T09:22:54.380Z,1022.02
2016-04-22T09:23:54.390Z,1021.97
2016-04-22T09:24:54.408Z,1021.95
2016-04-22T09:26:07.176Z,1021.94
2016-04-22T09:27:07.195Z,1021.85
2016-04-22T09:27:54.478Z,1021.91
2016-04-22T09:28:54.498Z,1021.88
2016-04-22T09:29:54.516Z,1021.91
2016-04-22T09:30:54.533Z,1021.85
2016-04-22T09:32:07.303Z,1021.85
2016-04-22T09:32:54.586Z,1021.8
2016-04-22T09:34:20.276Z,1021.92
2016-04-22T09:35:04.170Z,1021.91
2016-04-22T09:36:04.189Z,1021.9
2016-04-22T09:37:04.206Z,1022.02
2016-04-22T09:38:04.226Z,1022.07
2016-04-22T09:39:04.244Z,1022.01
2016-04-22T09:40:04.262Z,1022.05
2016-04-22T09:41:04.296Z,1022.04
2016-04-22T09:42:04.408Z,1021.96
2016-04-22T09:43:04.333Z,1021.96
2016-04-22T09:44:04.413Z,1021.94
2016-04-22T09:45:10.650Z,1021.94
2016-04-22T09:46:04.388Z,1021.94
2016-04-22T09:47:04.422Z,1022
2016-04-22T09:48:04.456Z,1021.94
2016-04-22T09:49:04.474Z,1021.93
2016-04-22T09:50:04.492Z,1021.93
2016-04-22T09:51:04.510Z,1021.94
2016-04-22T09:52:04.529Z,1021.96
2016-04-22T09:53:04.562Z,1021.94
2016-04-22T09:54:04.581Z,1021.9
2016-04-22T09:55:04.599Z,1021.86
2016-04-22T09:56:04.618Z,1021.84
2016-04-22T09:57:04.652Z,1021.77
2016-04-22T09:58:04.670Z,1021.74
2016-04-22T09:59:04.688Z,1021.75
2016-04-22T10:00:04.722Z,1021.79
2016-04-22T10:01:04.740Z,1021.89
2016-04-22T10:02:23.962Z,1021.82
2016-04-22T10:03:04.776Z,1021.71
2016-04-22T10:04:04.812Z,1021.66
2016-04-22T10:05:04.828Z,1021.69
2016-04-22T10:06:04.848Z,1021.72
2016-04-22T10:07:04.866Z,1021.68
2016-04-22T10:13:37.493Z,1021.6
2016-04-22T10:14:37.496Z,1021.6
2016-04-22T10:15:37.515Z,1021.54
2016-04-22T10:16:37.549Z,1021.52
2016-04-22T10:17:37.566Z,1021.55
2016-04-22T10:18:39.007Z,1021.45
2016-04-22T10:19:37.619Z,1021.47
2016-04-22T10:20:40.654Z,1021.54
2016-04-22T10:21:37.656Z,1021.54
2016-04-22T10:22:50.409Z,1021.53
2016-04-22T10:23:37.692Z,1021.55
2016-04-22T10:24:56.914Z,1021.5
2016-04-22T10:25:50.463Z,1021.55
2016-04-22T10:27:03.434Z,1021.58
2016-04-22T10:27:37.781Z,1021.53
2016-04-22T10:28:37.800Z,1021.49
2016-04-22T10:29:50.553Z,1021.47
2016-04-22T10:30:50.570Z,1021.45
2016-04-22T10:31:37.854Z,1021.46
2016-04-22T10:32:37.873Z,1021.43
2016-04-22T10:33:37.923Z,1021.41
2016-04-22T10:34:50.645Z,1021.43
2016-04-22T10:35:37.944Z,1021.39
2016-04-22T10:36:57.164Z,1021.41
2016-04-22T10:37:38.574Z,1021.4
2016-04-22T10:38:37.998Z,1021.44
2016-04-22T10:39:38.017Z,1021.43
2016-04-22T10:40:38.050Z,1021.41
2016-04-22T10:41:38.069Z,1021.44
2016-04-22T10:42:38.088Z,1021.38
2016-04-22T10:43:38.106Z,1021.41
2016-04-22T10:44:38.124Z,1021.36
2016-04-22T10:45:38.142Z,1021.32
2016-04-22T10:46:38.160Z,1021.28
2016-04-22T10:48:03.851Z,1021.24
2016-04-22T10:48:38.260Z,1021.25
2016-04-22T10:49:38.215Z,1021.28
2016-04-22T10:50:38.296Z,1021.26
2016-04-22T10:51:38.454Z,1021.27
2016-04-22T10:52:44.551Z,1021.23
2016-04-22T10:53:38.320Z,1021.26
2016-04-22T10:54:38.323Z,1021.22
2016-04-22T10:55:51.075Z,1021.15
2016-04-22T10:56:38.359Z,1021.19
2016-04-22T10:57:38.393Z,1021.19
2016-04-22T10:58:38.411Z,1021.22
2016-04-22T10:59:38.445Z,1021.19
2016-04-22T11:00:38.464Z,1021.16
2016-04-22T11:01:41.576Z,1021.16
2016-04-22T11:02:41.594Z,1021.22
2016-04-22T11:03:41.628Z,1021.14
2016-04-22T11:04:43.052Z,1021.16
2016-04-22T11:05:41.665Z,1021.12
2016-04-22T11:06:41.684Z,1021.16
2016-04-22T11:07:41.701Z,1021.11
2016-04-22T11:08:54.469Z,1021.13
2016-04-22T11:09:41.738Z,1021.1
2016-04-22T11:10:41.772Z,1021.09
2016-04-22T11:11:42.399Z,1021.13
2016-04-22T11:12:41.808Z,1021.15
2016-04-22T11:13:41.827Z,1021.17
2016-04-22T11:14:41.845Z,1021.23
2016-04-22T11:15:41.863Z,1021.2
2016-04-22T11:16:41.897Z,1021.16
2016-04-22T11:17:41.915Z,1021.18
2016-04-22T11:18:41.934Z,1021.17
2016-04-22T11:19:41.952Z,1021.15
2016-04-22T11:20:41.971Z,1021.26
2016-04-22T11:21:41.997Z,1021.1
2016-04-22T11:22:42.014Z,1021.09
2016-04-22T11:23:42.032Z,1021.03
2016-04-22T11:24:42.051Z,1021.04
2016-04-22T11:25:54.803Z,1021.01
2016-04-22T11:26:42.087Z,1021.07
2016-04-22T11:27:42.106Z,1021.11
2016-04-22T11:28:42.140Z,1021.12
2016-04-22T11:29:42.158Z,1021.09
2016-04-22T11:30:42.176Z,1021.07
2016-04-22T11:31:54.929Z,1021.08
2016-04-22T11:32:42.323Z,1021.06
2016-04-22T11:34:01.450Z,1021.02
2016-04-22T11:34:42.405Z,1021.03
2016-04-22T11:35:42.284Z,1021.02
2016-04-22T11:36:51.849Z,1021.07
2016-04-22T11:37:51.866Z,1020.99
2016-04-22T11:39:04.619Z,1021.01
2016-04-22T11:39:51.904Z,1021.02
2016-04-22T11:40:52.032Z,1021.03
2016-04-22T11:41:51.955Z,1021.02
2016-04-22T11:42:51.974Z,1021.07
2016-04-22T11:43:51.993Z,1021.04
2016-04-22T11:45:04.746Z,1021.1
2016-04-22T11:45:52.029Z,1020.98
2016-04-22T11:46:52.062Z,1020.95
2016-04-22T11:47:52.081Z,1020.94
2016-04-22T11:48:52.099Z,1020.92
2016-04-22T11:49:52.118Z,1020.97
2016-04-22T11:50:52.151Z,1020.99
2016-04-22T11:51:52.170Z,1020.97
2016-04-22T11:52:52.189Z,1020.95
2016-04-22T11:53:52.254Z,1020.86
2016-04-22T11:54:52.225Z,1020.93
2016-04-22T11:55:52.259Z,1020.93
2016-04-22T11:56:52.277Z,1020.92
2016-04-22T11:57:52.296Z,1020.88
2016-04-22T11:59:11.517Z,1020.88
2016-04-22T11:59:52.364Z,1020.95
2016-04-22T12:00:52.367Z,1020.86
2016-04-22T12:01:58.634Z,1020.89
2016-04-22T12:02:52.387Z,1020.87
2016-04-22T12:03:52.437Z,1020.87
2016-04-22T12:04:52.455Z,1020.82
2016-04-22T12:05:52.474Z,1020.89
2016-04-22T12:06:52.492Z,1020.81
2016-04-22T12:07:52.510Z,1020.85
2016-04-22T12:08:52.528Z,1020.85
2016-04-22T12:09:52.547Z,1020.78
2016-04-22T12:10:52.565Z,1020.75
2016-04-22T12:11:52.599Z,1020.92
2016-04-22T12:12:52.617Z,1020.91
2016-04-22T12:13:52.651Z,1020.87
2016-04-22T12:14:52.654Z,1020.97
2016-04-22T12:15:52.672Z,1020.91
2016-04-22T12:16:52.691Z,1020.83
2016-04-22T12:17:52.757Z,1020.84
2016-04-22T12:18:52.743Z,1020.81
2016-04-22T12:19:59.028Z,1020.87
2016-04-22T12:20:52.781Z,1020.77
2016-04-22T12:22:05.534Z,1020.83
2016-04-22T12:22:52.818Z,1020.72
2016-04-22T12:23:52.836Z,1020.71
2016-04-22T12:24:59.136Z,1020.67
2016-04-22T12:25:52.872Z,1020.68
2016-04-22T12:27:05.641Z,1020.74
2016-04-22T12:27:54.331Z,1020.82
2016-04-22T12:29:12.147Z,1020.82
2016-04-22T12:29:52.962Z,1020.74
2016-04-22T12:30:52.980Z,1020.7
2016-04-22T12:31:52.999Z,1020.7
2016-04-22T12:32:53.016Z,1020.64
2016-04-22T12:34:05.769Z,1020.63
2016-04-22T12:34:53.069Z,1020.62
2016-04-22T12:35:53.088Z,1020.6
2016-04-22T12:36:53.106Z,1020.56
2016-04-22T12:37:53.124Z,1020.61
2016-04-22T12:38:53.143Z,1020.54
2016-04-22T12:39:53.177Z,1020.62